sensor_id;sensor_type;location;lat;lon;timestamp;temperature;humidity
16160;DHT22;8185;57.818;15.224;2023-02-02T00:01:11;-0.80;99.90
16160;DHT22;8185;57.818;15.224;2023-02-02T00:03:39;-0.80;99.90
16160;DHT22;8185;57.818;15.224;2023-02-02T00:06:07;-0.80;99.90
16160;DHT22;8185;57.818;15.224;2023-02-02T00:08:35;-0.80;99.90
16160;DHT22;8185;57.818;15.224;2023-02-02T00:11:04;-0.80;99.90
16160;DHT22;8185;57.818;15.224;2023-02-02T00:13:32;-0.90;99.90
16160;DHT22;8185;57.818;15.224;2023-02-02T00:16:33;-0.90;99.90
16160;DHT22;8185;57.818;15.224;2023-02-02T00:19:03;-0.90;99.90
16160;DHT22;8185;57.818;15.224;2023-02-02T00:21:31;-1.00;99.90
16160;DHT22;8185;57.818;15.224;2023-02-02T00:23:58;-1.00;99.90
16160;DHT22;8185;57.818;15.224;2023-02-02T00:26:26;-0.90;99.90
16160;DHT22;8185;57.818;15.224;2023-02-02T00:28:53;-1.00;99.90
16160;DHT22;8185;57.818;15.224;2023-02-02T00:31:21;-1.00;99.90
16160;DHT22;8185;57.818;15.224;2023-02-02T00:33:49;-1.00;99.90
16160;DHT22;8185;57.818;15.224;2023-02-02T00:36:19;-1.00;99.90
16160;DHT22;8185;57.818;15.224;2023-02-02T00:38:47;-1.00;99.90
16160;DHT22;8185;57.818;15.224;2023-02-02T00:41:15;-1.00;99.90
16160;DHT22;8185;57.818;15.224;2023-02-02T00:43:42;-1.00;99.90
16160;DHT22;8185;57.818;15.224;2023-02-02T00:46:12;-0.90;99.90
16160;DHT22;8185;57.818;15.224;2023-02-02T00:48:39;-1.00;99.90
16160;DHT22;8185;57.818;15.224;2023-02-02T00:51:06;-1.00;99.90
16160;DHT22;8185;57.818;15.224;2023-02-02T00:53:35;-1.00;99.90
16160;DHT22;8185;57.818;15.224;2023-02-02T00:56:02;-1.10;99.90
16160;DHT22;8185;57.818;15.224;2023-02-02T00:58:29;-1.10;99.90
16160;DHT22;8185;57.818;15.224;2023-02-02T01:00:57;-1.10;99.90
16160;DHT22;8185;57.818;15.224;2023-02-02T01:03:24;-1.10;99.90
16160;DHT22;8185;57.818;15.224;2023-02-02T01:05:51;-1.20;99.90
16160;DHT22;8185;57.818;15.224;2023-02-02T01:08:18;-1.30;99.90
16160;DHT22;8185;57.818;15.224;2023-02-02T01:10:47;-1.40;99.90
16160;DHT22;8185;57.818;15.224;2023-02-02T01:13:14;-1.40;99.90
16160;DHT22;8185;57.818;15.224;2023-02-02T01:15:41;-1.50;99.90
16160;DHT22;8185;57.818;15.224;2023-02-02T01:18:08;-1.50;99.90
16160;DHT22;8185;57.818;15.224;2023-02-02T01:20:36;-1.50;99.90
16160;DHT22;8185;57.818;15.224;2023-02-02T01:23:03;-1.50;99.90
16160;DHT22;8185;57.818;15.224;2023-02-02T01:25:30;-1.50;99.90
16160;DHT22;8185;57.818;15.224;2023-02-02T01:28:01;-1.50;99.90
16160;DHT22;8185;57.818;15.224;2023-02-02T01:30:28;-1.50;99.90
16160;DHT22;8185;57.818;15.224;2023-02-02T01:32:55;-1.60;99.90
16160;DHT22;8185;57.818;15.224;2023-02-02T01:35:22;-1.60;99.90
16160;DHT22;8185;57.818;15.224;2023-02-02T01:37:50;-1.60;99.90
16160;DHT22;8185;57.818;15.224;2023-02-02T01:40:17;-1.60;99.90
16160;DHT22;8185;57.818;15.224;2023-02-02T01:42:44;-1.60;99.90
16160;DHT22;8185;57.818;15.224;2023-02-02T01:45:22;-1.60;99.90
16160;DHT22;8185;57.818;15.224;2023-02-02T01:47:53;-1.60;99.90
16160;DHT22;8185;57.818;15.224;2023-02-02T01:50:30;-1.60;99.90
16160;DHT22;8185;57.818;15.224;2023-02-02T01:52:59;-1.60;99.90
16160;DHT22;8185;57.818;15.224;2023-02-02T01:55:29;-1.60;99.90
16160;DHT22;8185;57.818;15.224;2023-02-02T01:58:01;-1.60;99.90
16160;DHT22;8185;57.818;15.224;2023-02-02T02:00:30;-1.60;99.90
16160;DHT22;8185;57.818;15.224;2023-02-02T02:03:01;-1.60;99.90
16160;DHT22;8185;57.818;15.224;2023-02-02T02:05:32;-1.60;99.90
16160;DHT22;8185;57.818;15.224;2023-02-02T02:08:06;-1.60;99.90
16160;DHT22;8185;57.818;15.224;2023-02-02T02:10:36;-1.60;99.90
16160;DHT22;8185;57.818;15.224;2023-02-02T02:13:04;-1.50;99.90
16160;DHT22;8185;57.818;15.224;2023-02-02T02:15:38;-1.50;99.90
16160;DHT22;8185;57.818;15.224;2023-02-02T02:18:31;-1.50;99.90
16160;DHT22;8185;57.818;15.224;2023-02-02T02:28:17;-1.50;99.90
16160;DHT22;8185;57.818;15.224;2023-02-02T02:33:55;-1.50;99.90
16160;DHT22;8185;57.818;15.224;2023-02-02T02:36:29;-1.50;99.90
16160;DHT22;8185;57.818;15.224;2023-02-02T02:39:07;-1.50;99.90
16160;DHT22;8185;57.818;15.224;2023-02-02T02:41:39;-1.60;99.90
16160;DHT22;8185;57.818;15.224;2023-02-02T02:44:10;-1.60;99.90
16160;DHT22;8185;57.818;15.224;2023-02-02T02:46:38;-1.60;99.90
16160;DHT22;8185;57.818;15.224;2023-02-02T02:49:09;-1.60;99.90
16160;DHT22;8185;57.818;15.224;2023-02-02T02:51:42;-1.60;99.90
16160;DHT22;8185;57.818;15.224;2023-02-02T02:54:11;-1.60;99.90
16160;DHT22;8185;57.818;15.224;2023-02-02T02:56:46;-1.70;99.90
16160;DHT22;8185;57.818;15.224;2023-02-02T02:59:26;-1.80;99.90
16160;DHT22;8185;57.818;15.224;2023-02-02T03:02:05;-1.90;99.90
16160;DHT22;8185;57.818;15.224;2023-02-02T03:04:52;-1.90;99.90
16160;DHT22;8185;57.818;15.224;2023-02-02T03:07:24;-2.00;99.90
16160;DHT22;8185;57.818;15.224;2023-02-02T03:09:54;-2.10;99.90
16160;DHT22;8185;57.818;15.224;2023-02-02T03:12:22;-2.10;99.90
16160;DHT22;8185;57.818;15.224;2023-02-02T03:14:50;-2.10;99.90
16160;DHT22;8185;57.818;15.224;2023-02-02T03:17:17;-2.00;99.90
16160;DHT22;8185;57.818;15.224;2023-02-02T03:19:46;-2.00;99.90
16160;DHT22;8185;57.818;15.224;2023-02-02T03:22:13;-2.00;99.90
16160;DHT22;8185;57.818;15.224;2023-02-02T03:24:40;-2.00;99.90
16160;DHT22;8185;57.818;15.224;2023-02-02T03:27:07;-2.00;99.90
16160;DHT22;8185;57.818;15.224;2023-02-02T03:29:34;-2.00;99.90
16160;DHT22;8185;57.818;15.224;2023-02-02T03:32:02;-2.00;99.90
16160;DHT22;8185;57.818;15.224;2023-02-02T03:34:30;-2.00;99.90
16160;DHT22;8185;57.818;15.224;2023-02-02T03:36:58;-2.00;99.90
16160;DHT22;8185;57.818;15.224;2023-02-02T03:39:25;-2.00;99.90
16160;DHT22;8185;57.818;15.224;2023-02-02T03:41:53;-2.00;99.90
16160;DHT22;8185;57.818;15.224;2023-02-02T03:44:20;-2.00;99.90
16160;DHT22;8185;57.818;15.224;2023-02-02T03:46:47;-2.00;99.90
16160;DHT22;8185;57.818;15.224;2023-02-02T03:49:14;-2.00;99.90
16160;DHT22;8185;57.818;15.224;2023-02-02T03:51:41;-2.00;99.90
16160;DHT22;8185;57.818;15.224;2023-02-02T03:54:10;-1.90;99.90
16160;DHT22;8185;57.818;15.224;2023-02-02T03:56:38;-2.00;99.90
16160;DHT22;8185;57.818;15.224;2023-02-02T03:59:05;-2.00;99.90
16160;DHT22;8185;57.818;15.224;2023-02-02T04:01:32;-2.00;99.90
16160;DHT22;8185;57.818;15.224;2023-02-02T04:03:59;-2.00;99.90
16160;DHT22;8185;57.818;15.224;2023-02-02T04:06:27;-2.00;99.90
16160;DHT22;8185;57.818;15.224;2023-02-02T04:08:54;-2.00;99.90
16160;DHT22;8185;57.818;15.224;2023-02-02T04:11:23;-2.00;99.90
16160;DHT22;8185;57.818;15.224;2023-02-02T04:13:50;-2.00;99.90
16160;DHT22;8185;57.818;15.224;2023-02-02T04:16:17;-2.10;99.90
16160;DHT22;8185;57.818;15.224;2023-02-02T04:18:44;-2.10;99.90
16160;DHT22;8185;57.818;15.224;2023-02-02T04:21:11;-2.10;99.90
16160;DHT22;8185;57.818;15.224;2023-02-02T04:23:39;-2.10;99.90
16160;DHT22;8185;57.818;15.224;2023-02-02T04:26:06;-2.10;99.90
16160;DHT22;8185;57.818;15.224;2023-02-02T04:28:34;-2.10;99.90
16160;DHT22;8185;57.818;15.224;2023-02-02T04:31:02;-2.10;99.90
16160;DHT22;8185;57.818;15.224;2023-02-02T04:33:29;-2.10;99.90
16160;DHT22;8185;57.818;15.224;2023-02-02T04:35:56;-2.10;99.90
16160;DHT22;8185;57.818;15.224;2023-02-02T04:38:23;-2.10;99.90
16160;DHT22;8185;57.818;15.224;2023-02-02T04:40:50;-2.10;99.90
16160;DHT22;8185;57.818;15.224;2023-02-02T04:43:18;-2.10;99.90
16160;DHT22;8185;57.818;15.224;2023-02-02T04:45:46;-2.10;99.90
16160;DHT22;8185;57.818;15.224;2023-02-02T04:48:14;-2.10;99.90
16160;DHT22;8185;57.818;15.224;2023-02-02T04:50:42;-2.10;99.90
16160;DHT22;8185;57.818;15.224;2023-02-02T04:53:09;-2.00;99.90
16160;DHT22;8185;57.818;15.224;2023-02-02T04:55:36;-2.00;99.90
16160;DHT22;8185;57.818;15.224;2023-02-02T04:58:04;-2.00;99.90
16160;DHT22;8185;57.818;15.224;2023-02-02T05:00:31;-1.90;99.90
16160;DHT22;8185;57.818;15.224;2023-02-02T05:03:00;-2.00;99.90
16160;DHT22;8185;57.818;15.224;2023-02-02T05:05:27;-2.00;99.90
16160;DHT22;8185;57.818;15.224;2023-02-02T05:07:54;-2.00;99.90
16160;DHT22;8185;57.818;15.224;2023-02-02T05:10:21;-2.00;99.90
16160;DHT22;8185;57.818;15.224;2023-02-02T05:12:51;-2.10;99.90
16160;DHT22;8185;57.818;15.224;2023-02-02T05:15:18;-2.20;99.90
16160;DHT22;8185;57.818;15.224;2023-02-02T05:17:47;-2.20;99.90
16160;DHT22;8185;57.818;15.224;2023-02-02T05:20:16;-2.20;99.90
16160;DHT22;8185;57.818;15.224;2023-02-02T05:22:43;-2.20;99.90
16160;DHT22;8185;57.818;15.224;2023-02-02T05:25:10;-2.20;99.90
16160;DHT22;8185;57.818;15.224;2023-02-02T05:27:37;-2.20;99.90
16160;DHT22;8185;57.818;15.224;2023-02-02T05:30:05;-2.20;99.90
16160;DHT22;8185;57.818;15.224;2023-02-02T05:32:33;-2.30;99.90
16160;DHT22;8185;57.818;15.224;2023-02-02T05:35:00;-2.30;99.90
16160;DHT22;8185;57.818;15.224;2023-02-02T05:37:28;-2.30;99.90
16160;DHT22;8185;57.818;15.224;2023-02-02T05:39:56;-2.30;99.90
16160;DHT22;8185;57.818;15.224;2023-02-02T05:42:23;-2.30;99.90
16160;DHT22;8185;57.818;15.224;2023-02-02T05:44:50;-2.40;99.90
16160;DHT22;8185;57.818;15.224;2023-02-02T05:47:17;-2.40;99.90
16160;DHT22;8185;57.818;15.224;2023-02-02T05:49:44;-2.40;99.90
16160;DHT22;8185;57.818;15.224;2023-02-02T05:52:15;-2.50;99.90
16160;DHT22;8185;57.818;15.224;2023-02-02T05:54:45;-2.50;99.90
16160;DHT22;8185;57.818;15.224;2023-02-02T05:57:12;-2.60;99.90
16160;DHT22;8185;57.818;15.224;2023-02-02T05:59:39;-2.50;99.90
16160;DHT22;8185;57.818;15.224;2023-02-02T06:02:06;-2.50;99.90
16160;DHT22;8185;57.818;15.224;2023-02-02T06:04:33;-2.50;99.90
16160;DHT22;8185;57.818;15.224;2023-02-02T06:07:01;-2.40;99.90
16160;DHT22;8185;57.818;15.224;2023-02-02T06:09:28;-2.40;99.90
16160;DHT22;8185;57.818;15.224;2023-02-02T06:11:57;-2.50;99.90
16160;DHT22;8185;57.818;15.224;2023-02-02T06:14:24;-2.50;99.90
16160;DHT22;8185;57.818;15.224;2023-02-02T06:16:52;-2.60;99.90
16160;DHT22;8185;57.818;15.224;2023-02-02T06:19:19;-2.70;99.90
16160;DHT22;8185;57.818;15.224;2023-02-02T06:21:47;-2.80;99.90
16160;DHT22;8185;57.818;15.224;2023-02-02T06:24:14;-2.80;99.90
16160;DHT22;8185;57.818;15.224;2023-02-02T06:26:41;-2.90;99.90
16160;DHT22;8185;57.818;15.224;2023-02-02T06:29:11;-2.80;99.90
16160;DHT22;8185;57.818;15.224;2023-02-02T06:31:39;-2.90;99.90
16160;DHT22;8185;57.818;15.224;2023-02-02T06:34:06;-2.90;99.90
16160;DHT22;8185;57.818;15.224;2023-02-02T06:36:33;-2.90;99.90
16160;DHT22;8185;57.818;15.224;2023-02-02T06:39:01;-3.10;99.90
16160;DHT22;8185;57.818;15.224;2023-02-02T06:41:29;-3.10;99.90
16160;DHT22;8185;57.818;15.224;2023-02-02T06:43:57;-3.20;99.90
16160;DHT22;8185;57.818;15.224;2023-02-02T06:46:25;-3.20;99.90
16160;DHT22;8185;57.818;15.224;2023-02-02T06:48:53;-3.20;99.90
16160;DHT22;8185;57.818;15.224;2023-02-02T06:51:20;-3.10;99.90
16160;DHT22;8185;57.818;15.224;2023-02-02T06:53:47;-3.10;99.90
16160;DHT22;8185;57.818;15.224;2023-02-02T06:56:15;-3.10;99.90
16160;DHT22;8185;57.818;15.224;2023-02-02T06:58:42;-3.10;99.90
16160;DHT22;8185;57.818;15.224;2023-02-02T07:01:11;-3.00;99.90
16160;DHT22;8185;57.818;15.224;2023-02-02T07:03:40;-3.00;99.90
16160;DHT22;8185;57.818;15.224;2023-02-02T07:06:12;-3.00;99.90
16160;DHT22;8185;57.818;15.224;2023-02-02T07:08:40;-3.00;99.90
16160;DHT22;8185;57.818;15.224;2023-02-02T07:11:07;-3.00;99.90
16160;DHT22;8185;57.818;15.224;2023-02-02T07:13:35;-3.00;99.90
16160;DHT22;8185;57.818;15.224;2023-02-02T07:16:02;-3.00;99.90
16160;DHT22;8185;57.818;15.224;2023-02-02T07:18:30;-3.00;99.90
16160;DHT22;8185;57.818;15.224;2023-02-02T07:20:59;-3.00;99.90
16160;DHT22;8185;57.818;15.224;2023-02-02T07:23:26;-3.00;99.90
16160;DHT22;8185;57.818;15.224;2023-02-02T07:26:00;-3.00;99.90
16160;DHT22;8185;57.818;15.224;2023-02-02T07:28:28;-3.00;99.90
16160;DHT22;8185;57.818;15.224;2023-02-02T07:30:55;-3.00;99.90
16160;DHT22;8185;57.818;15.224;2023-02-02T07:33:22;-2.90;99.90
16160;DHT22;8185;57.818;15.224;2023-02-02T07:35:49;-2.90;99.90
16160;DHT22;8185;57.818;15.224;2023-02-02T07:38:18;-2.90;99.90
16160;DHT22;8185;57.818;15.224;2023-02-02T07:40:46;-2.90;99.90
16160;DHT22;8185;57.818;15.224;2023-02-02T07:43:13;-2.90;99.90
16160;DHT22;8185;57.818;15.224;2023-02-02T07:45:40;-2.90;99.90
16160;DHT22;8185;57.818;15.224;2023-02-02T07:48:07;-2.90;99.90
16160;DHT22;8185;57.818;15.224;2023-02-02T07:50:35;-2.80;99.90
16160;DHT22;8185;57.818;15.224;2023-02-02T07:53:02;-2.80;99.90
16160;DHT22;8185;57.818;15.224;2023-02-02T07:55:30;-2.70;99.90
16160;DHT22;8185;57.818;15.224;2023-02-02T07:57:57;-2.70;99.90
16160;DHT22;8185;57.818;15.224;2023-02-02T08:00:25;-2.70;99.90
16160;DHT22;8185;57.818;15.224;2023-02-02T08:02:53;-2.70;99.90
16160;DHT22;8185;57.818;15.224;2023-02-02T08:05:20;-2.70;99.90
16160;DHT22;8185;57.818;15.224;2023-02-02T08:07:47;-2.70;99.90
16160;DHT22;8185;57.818;15.224;2023-02-02T08:10:14;-2.70;99.90
16160;DHT22;8185;57.818;15.224;2023-02-02T08:12:43;-2.70;99.90
16160;DHT22;8185;57.818;15.224;2023-02-02T08:15:11;-2.80;99.90
16160;DHT22;8185;57.818;15.224;2023-02-02T08:17:38;-2.70;99.90
16160;DHT22;8185;57.818;15.224;2023-02-02T08:20:06;-2.60;99.90
16160;DHT22;8185;57.818;15.224;2023-02-02T08:22:33;-2.60;99.90
16160;DHT22;8185;57.818;15.224;2023-02-02T08:25:01;-2.50;99.90
16160;DHT22;8185;57.818;15.224;2023-02-02T08:27:28;-2.50;99.90
16160;DHT22;8185;57.818;15.224;2023-02-02T08:29:56;-2.40;99.90
16160;DHT22;8185;57.818;15.224;2023-02-02T08:32:24;-2.40;99.90
16160;DHT22;8185;57.818;15.224;2023-02-02T08:34:51;-2.40;99.90
16160;DHT22;8185;57.818;15.224;2023-02-02T08:37:18;-2.40;99.90
16160;DHT22;8185;57.818;15.224;2023-02-02T08:39:46;-2.40;99.90
16160;DHT22;8185;57.818;15.224;2023-02-02T08:42:13;-2.40;99.90
16160;DHT22;8185;57.818;15.224;2023-02-02T08:44:40;-2.30;99.90
16160;DHT22;8185;57.818;15.224;2023-02-02T08:47:09;-2.40;99.90
16160;DHT22;8185;57.818;15.224;2023-02-02T08:49:36;-2.40;99.90
16160;DHT22;8185;57.818;15.224;2023-02-02T08:52:03;-2.40;99.90
16160;DHT22;8185;57.818;15.224;2023-02-02T08:54:31;-2.50;99.90
16160;DHT22;8185;57.818;15.224;2023-02-02T08:56:58;-2.50;99.90
16160;DHT22;8185;57.818;15.224;2023-02-02T08:59:25;-2.50;99.90
16160;DHT22;8185;57.818;15.224;2023-02-02T09:01:53;-2.60;99.90
16160;DHT22;8185;57.818;15.224;2023-02-02T09:04:21;-2.60;99.90
16160;DHT22;8185;57.818;15.224;2023-02-02T09:06:49;-2.60;99.90
16160;DHT22;8185;57.818;15.224;2023-02-02T09:09:16;-2.50;99.90
16160;DHT22;8185;57.818;15.224;2023-02-02T09:11:43;-2.50;99.90
16160;DHT22;8185;57.818;15.224;2023-02-02T09:14:12;-2.50;99.90
16160;DHT22;8185;57.818;15.224;2023-02-02T09:16:40;-2.40;99.90
16160;DHT22;8185;57.818;15.224;2023-02-02T09:19:08;-2.50;99.90
16160;DHT22;8185;57.818;15.224;2023-02-02T09:21:37;-2.50;99.90
16160;DHT22;8185;57.818;15.224;2023-02-02T09:24:06;-2.60;99.90
16160;DHT22;8185;57.818;15.224;2023-02-02T09:26:34;-2.60;99.90
16160;DHT22;8185;57.818;15.224;2023-02-02T09:29:04;-2.60;99.90
16160;DHT22;8185;57.818;15.224;2023-02-02T09:31:34;-2.60;99.90
16160;DHT22;8185;57.818;15.224;2023-02-02T09:34:02;-2.60;99.90
16160;DHT22;8185;57.818;15.224;2023-02-02T09:36:29;-2.60;99.90
16160;DHT22;8185;57.818;15.224;2023-02-02T09:38:58;-2.60;99.90
16160;DHT22;8185;57.818;15.224;2023-02-02T09:44:43;-2.60;99.90
16160;DHT22;8185;57.818;15.224;2023-02-02T09:47:17;-2.60;99.90
16160;DHT22;8185;57.818;15.224;2023-02-02T09:49:54;-2.50;99.90
16160;DHT22;8185;57.818;15.224;2023-02-02T09:52:25;-2.40;99.90
16160;DHT22;8185;57.818;15.224;2023-02-02T09:54:59;-2.40;99.90
16160;DHT22;8185;57.818;15.224;2023-02-02T09:57:34;-2.40;99.90
16160;DHT22;8185;57.818;15.224;2023-02-02T10:00:04;-2.40;99.90
16160;DHT22;8185;57.818;15.224;2023-02-02T10:02:36;-2.40;99.90
16160;DHT22;8185;57.818;15.224;2023-02-02T10:05:10;-2.50;99.90
16160;DHT22;8185;57.818;15.224;2023-02-02T10:07:42;-2.50;99.90
16160;DHT22;8185;57.818;15.224;2023-02-02T10:10:16;-2.40;99.90
16160;DHT22;8185;57.818;15.224;2023-02-02T10:12:51;-2.30;99.90
16160;DHT22;8185;57.818;15.224;2023-02-02T10:15:30;-2.20;99.90
16160;DHT22;8185;57.818;15.224;2023-02-02T10:18:05;-2.20;99.90
16160;DHT22;8185;57.818;15.224;2023-02-02T10:20:40;-2.10;99.90
16160;DHT22;8185;57.818;15.224;2023-02-02T10:23:18;-2.10;99.90
16160;DHT22;8185;57.818;15.224;2023-02-02T10:25:55;-1.70;99.90
16160;DHT22;8185;57.818;15.224;2023-02-02T10:28:40;-1.30;99.90
16160;DHT22;8185;57.818;15.224;2023-02-02T10:31:21;-1.10;99.90
16160;DHT22;8185;57.818;15.224;2023-02-02T10:34:01;-1.40;99.90
16160;DHT22;8185;57.818;15.224;2023-02-02T10:36:38;-0.90;99.90
16160;DHT22;8185;57.818;15.224;2023-02-02T10:39:18;-1.10;99.90
16160;DHT22;8185;57.818;15.224;2023-02-02T10:41:55;-1.30;99.90
16160;DHT22;8185;57.818;15.224;2023-02-02T10:44:32;-1.40;99.90
16160;DHT22;8185;57.818;15.224;2023-02-02T10:47:05;-1.50;99.90
16160;DHT22;8185;57.818;15.224;2023-02-02T10:49:37;-1.60;99.90
16160;DHT22;8185;57.818;15.224;2023-02-02T10:52:13;-1.80;99.90
16160;DHT22;8185;57.818;15.224;2023-02-02T10:54:55;-1.90;99.90
16160;DHT22;8185;57.818;15.224;2023-02-02T10:57:50;-2.00;99.90
16160;DHT22;8185;57.818;15.224;2023-02-02T11:00:21;-2.00;99.90
16160;DHT22;8185;57.818;15.224;2023-02-02T11:02:50;-2.10;99.90
16160;DHT22;8185;57.818;15.224;2023-02-02T11:05:21;-2.20;99.90
16160;DHT22;8185;57.818;15.224;2023-02-02T11:08:13;-2.20;99.90
16160;DHT22;8185;57.818;15.224;2023-02-02T11:10:42;-1.90;99.90
16160;DHT22;8185;57.818;15.224;2023-02-02T11:13:16;-1.50;99.90
16160;DHT22;8185;57.818;15.224;2023-02-02T11:15:45;-0.40;99.90
16160;DHT22;8185;57.818;15.224;2023-02-02T11:18:24;-0.50;99.90
16160;DHT22;8185;57.818;15.224;2023-02-02T11:20:52;-0.60;99.90
16160;DHT22;8185;57.818;15.224;2023-02-02T11:23:20;-1.20;99.90
16160;DHT22;8185;57.818;15.224;2023-02-02T11:25:57;-1.10;99.90
16160;DHT22;8185;57.818;15.224;2023-02-02T11:28:31;-1.00;99.90
16160;DHT22;8185;57.818;15.224;2023-02-02T11:31:01;-1.00;99.90
16160;DHT22;8185;57.818;15.224;2023-02-02T11:33:30;-1.00;99.90
16160;DHT22;8185;57.818;15.224;2023-02-02T11:35:59;-0.70;99.90
16160;DHT22;8185;57.818;15.224;2023-02-02T11:38:28;-0.60;99.90
16160;DHT22;8185;57.818;15.224;2023-02-02T11:40:58;-0.70;99.90
16160;DHT22;8185;57.818;15.224;2023-02-02T11:43:32;-0.50;99.90
16160;DHT22;8185;57.818;15.224;2023-02-02T11:46:02;-0.50;99.90
16160;DHT22;8185;57.818;15.224;2023-02-02T11:48:33;-0.60;99.90
16160;DHT22;8185;57.818;15.224;2023-02-02T11:51:02;-0.60;99.90
16160;DHT22;8185;57.818;15.224;2023-02-02T11:53:33;-0.80;99.90
16160;DHT22;8185;57.818;15.224;2023-02-02T11:56:06;-0.60;99.90
16160;DHT22;8185;57.818;15.224;2023-02-02T11:58:47;-0.10;99.90
16160;DHT22;8185;57.818;15.224;2023-02-02T12:01:23;0.00;99.90
16160;DHT22;8185;57.818;15.224;2023-02-02T12:03:52;0.30;99.90
16160;DHT22;8185;57.818;15.224;2023-02-02T12:06:21;0.30;99.90
16160;DHT22;8185;57.818;15.224;2023-02-02T12:08:50;0.10;99.90
16160;DHT22;8185;57.818;15.224;2023-02-02T12:11:28;0.20;99.90
16160;DHT22;8185;57.818;15.224;2023-02-02T12:14:12;0.30;99.90
16160;DHT22;8185;57.818;15.224;2023-02-02T12:16:50;0.00;99.90
16160;DHT22;8185;57.818;15.224;2023-02-02T12:22:24;-0.60;99.90
16160;DHT22;8185;57.818;15.224;2023-02-02T12:24:56;-0.80;99.90
16160;DHT22;8185;57.818;15.224;2023-02-02T12:27:34;-0.80;99.90
16160;DHT22;8185;57.818;15.224;2023-02-02T12:30:21;-0.90;99.90
16160;DHT22;8185;57.818;15.224;2023-02-02T12:33:11;-0.90;99.90
16160;DHT22;8185;57.818;15.224;2023-02-02T12:36:06;-0.90;99.90
16160;DHT22;8185;57.818;15.224;2023-02-02T12:39:15;-0.80;99.90
16160;DHT22;8185;57.818;15.224;2023-02-02T12:45:00;-1.00;99.90
16160;DHT22;8185;57.818;15.224;2023-02-02T12:47:35;-1.00;99.90
16160;DHT22;8185;57.818;15.224;2023-02-02T12:50:20;-1.10;99.90
16160;DHT22;8185;57.818;15.224;2023-02-02T12:53:15;-1.20;99.90
16160;DHT22;8185;57.818;15.224;2023-02-02T12:55:49;-1.10;99.90
16160;DHT22;8185;57.818;15.224;2023-02-02T12:58:26;-1.00;99.90
16160;DHT22;8185;57.818;15.224;2023-02-02T13:01:06;-0.90;99.90
16160;DHT22;8185;57.818;15.224;2023-02-02T13:03:46;-0.90;99.90
16160;DHT22;8185;57.818;15.224;2023-02-02T13:06:51;-0.80;99.90
16160;DHT22;8185;57.818;15.224;2023-02-02T13:09:25;-0.70;99.90
16160;DHT22;8185;57.818;15.224;2023-02-02T13:11:58;-0.60;99.90
16160;DHT22;8185;57.818;15.224;2023-02-02T13:14:30;-0.60;99.90
16160;DHT22;8185;57.818;15.224;2023-02-02T13:17:04;-0.70;99.90
16160;DHT22;8185;57.818;15.224;2023-02-02T13:19:37;-0.70;99.90
16160;DHT22;8185;57.818;15.224;2023-02-02T13:22:09;-0.60;99.90
16160;DHT22;8185;57.818;15.224;2023-02-02T13:24:41;-0.10;99.90
16160;DHT22;8185;57.818;15.224;2023-02-02T13:27:13;0.60;99.90
16160;DHT22;8185;57.818;15.224;2023-02-02T13:29:44;0.40;99.90
16160;DHT22;8185;57.818;15.224;2023-02-02T13:32:18;0.30;99.90
16160;DHT22;8185;57.818;15.224;2023-02-02T13:34:53;0.20;99.90
16160;DHT22;8185;57.818;15.224;2023-02-02T13:37:26;-0.20;99.90
16160;DHT22;8185;57.818;15.224;2023-02-02T13:40:00;-0.50;99.90
16160;DHT22;8185;57.818;15.224;2023-02-02T13:42:35;-0.60;99.90
16160;DHT22;8185;57.818;15.224;2023-02-02T13:45:21;-0.80;99.90
16160;DHT22;8185;57.818;15.224;2023-02-02T13:47:57;-0.90;99.90
16160;DHT22;8185;57.818;15.224;2023-02-02T13:50:28;-0.80;99.90
16160;DHT22;8185;57.818;15.224;2023-02-02T13:53:10;-0.80;99.90
16160;DHT22;8185;57.818;15.224;2023-02-02T13:55:53;-0.40;99.90
16160;DHT22;8185;57.818;15.224;2023-02-02T13:58:34;-0.30;99.90
16160;DHT22;8185;57.818;15.224;2023-02-02T14:01:06;-0.70;99.90
16160;DHT22;8185;57.818;15.224;2023-02-02T14:03:35;-0.70;99.90
16160;DHT22;8185;57.818;15.224;2023-02-02T14:06:12;-0.70;99.90
16160;DHT22;8185;57.818;15.224;2023-02-02T14:08:47;-0.60;99.90
16160;DHT22;8185;57.818;15.224;2023-02-02T14:11:20;-0.40;99.90
16160;DHT22;8185;57.818;15.224;2023-02-02T14:13:49;-0.30;99.90
16160;DHT22;8185;57.818;15.224;2023-02-02T14:16:49;-0.70;99.90
16160;DHT22;8185;57.818;15.224;2023-02-02T14:19:47;-0.70;99.90
16160;DHT22;8185;57.818;15.224;2023-02-02T14:22:39;-1.00;99.90
16160;DHT22;8185;57.818;15.224;2023-02-02T14:25:46;-0.80;99.90
16160;DHT22;8185;57.818;15.224;2023-02-02T14:28:38;-0.30;99.90
16160;DHT22;8185;57.818;15.224;2023-02-02T14:34:25;-0.70;99.90
16160;DHT22;8185;57.818;15.224;2023-02-02T14:37:09;-0.50;99.90
16160;DHT22;8185;57.818;15.224;2023-02-02T14:39:52;-0.20;99.90
16160;DHT22;8185;57.818;15.224;2023-02-02T14:42:34;-0.30;99.90
16160;DHT22;8185;57.818;15.224;2023-02-02T14:45:26;-0.20;99.90
16160;DHT22;8185;57.818;15.224;2023-02-02T14:47:55;-0.50;99.90
16160;DHT22;8185;57.818;15.224;2023-02-02T14:50:43;-0.40;99.90
16160;DHT22;8185;57.818;15.224;2023-02-02T14:53:21;-0.50;99.90
16160;DHT22;8185;57.818;15.224;2023-02-02T14:55:57;-0.80;99.90
16160;DHT22;8185;57.818;15.224;2023-02-02T14:58:28;-1.20;99.90
16160;DHT22;8185;57.818;15.224;2023-02-02T15:01:10;-1.30;99.90
16160;DHT22;8185;57.818;15.224;2023-02-02T15:03:48;-1.10;99.90
16160;DHT22;8185;57.818;15.224;2023-02-02T15:06:30;-1.40;99.90
16160;DHT22;8185;57.818;15.224;2023-02-02T15:12:21;-1.90;99.90
16160;DHT22;8185;57.818;15.224;2023-02-02T15:14:55;-2.10;99.90
16160;DHT22;8185;57.818;15.224;2023-02-02T15:17:33;-2.10;99.90
16160;DHT22;8185;57.818;15.224;2023-02-02T15:20:11;-2.20;99.90
16160;DHT22;8185;57.818;15.224;2023-02-02T15:22:43;-2.30;99.90
16160;DHT22;8185;57.818;15.224;2023-02-02T15:25:17;-2.40;99.90
16160;DHT22;8185;57.818;15.224;2023-02-02T15:27:54;-2.50;99.90
16160;DHT22;8185;57.818;15.224;2023-02-02T15:30:22;-2.60;99.90
16160;DHT22;8185;57.818;15.224;2023-02-02T15:32:51;-2.70;99.90
16160;DHT22;8185;57.818;15.224;2023-02-02T15:35:21;-2.60;99.90
16160;DHT22;8185;57.818;15.224;2023-02-02T15:37:54;-2.70;99.90
16160;DHT22;8185;57.818;15.224;2023-02-02T15:40:25;-2.80;99.90
16160;DHT22;8185;57.818;15.224;2023-02-02T15:42:57;-2.90;99.90
16160;DHT22;8185;57.818;15.224;2023-02-02T15:45:31;-3.00;99.90
16160;DHT22;8185;57.818;15.224;2023-02-02T15:48:00;-3.10;99.90
16160;DHT22;8185;57.818;15.224;2023-02-02T15:50:31;-3.20;99.90
16160;DHT22;8185;57.818;15.224;2023-02-02T15:52:59;-3.30;99.90
16160;DHT22;8185;57.818;15.224;2023-02-02T15:55:31;-3.40;99.90
16160;DHT22;8185;57.818;15.224;2023-02-02T15:58:01;-3.40;99.90
16160;DHT22;8185;57.818;15.224;2023-02-02T16:00:32;-3.40;99.90
16160;DHT22;8185;57.818;15.224;2023-02-02T16:03:02;-3.30;99.90
16160;DHT22;8185;57.818;15.224;2023-02-02T16:05:42;-3.20;99.90
16160;DHT22;8185;57.818;15.224;2023-02-02T16:08:16;-3.10;99.90
16160;DHT22;8185;57.818;15.224;2023-02-02T16:10:45;-3.10;99.90
16160;DHT22;8185;57.818;15.224;2023-02-02T16:13:24;-3.20;99.90
16160;DHT22;8185;57.818;15.224;2023-02-02T16:15:56;-3.30;99.90
16160;DHT22;8185;57.818;15.224;2023-02-02T16:18:24;-3.40;99.90
16160;DHT22;8185;57.818;15.224;2023-02-02T16:20:52;-3.30;99.90
16160;DHT22;8185;57.818;15.224;2023-02-02T16:23:23;-3.40;99.90
16160;DHT22;8185;57.818;15.224;2023-02-02T16:25:53;-3.50;99.90